sensor_id;sensor_type;location;lat;lon;timestamp;pressure;altitude;pressure_sealevel;temperature;humidity
54459;BME280;40368;49.350;8.152;2022-09-16T00:00:00;996.4;;;22.12;48.2
54459;BME280;40368;49.350;8.152;2022-09-16T00:01:00;996.5;;;22.12;48.17
54459;BME280;40368;49.350;8.152;2022-09-16T00:02:00;996.5;;;22.11;48.26
54459;BME280;40368;49.350;8.152;2022-09-16T00:03:00;996.5;;;22.09;48.43
54459;BME280;40368;49.350;8.152;2022-09-16T00:04:00;996.5;;;22.07;48.29
54459;BME280;40368;49.350;8.152;2022-09-16T00:05:00;996.4;;;22.07;48.52
54459;BME280;40368;49.350;8.152;2022-09-16T00:06:00;996.5;;;22.06;48.56
54459;BME280;40368;49.350;8.152;2022-09-16T00:07:00;996.4;;;22.07;48.23
54459;BME280;40368;49.350;8.152;2022-09-16T00:08:00;996.5;;;22.09;48.36
54459;BME280;40368;49.350;8.152;2022-09-16T00:09:00;996.5;;;22.11;48.09
54459;BME280;40368;49.350;8.152;2022-09-16T00:10:00;996.5;;;22.1;47.99
54459;BME280;40368;49.350;8.152;2022-09-16T00:11:00;996.4;;;22.08;48.26
54459;BME280;40368;49.350;8.152;2022-09-16T00:12:00;996.5;;;22.09;48.22
54459;BME280;40368;49.350;8.152;2022-09-16T00:13:00;996.5;;;22.09;48.46
54459;BME280;40368;49.350;8.152;2022-09-16T00:14:00;996.5;;;22.08;48.47
54459;BME280;40368;49.350;8.152;2022-09-16T00:15:00;996.5;;;22.06;48.27
54459;BME280;40368;49.350;8.152;2022-09-16T00:16:00;996.5;;;22.05;48.31
54459;BME280;40368;49.350;8.152;2022-09-16T00:17:00;996.4;;;22.04;48.54
54459;BME280;40368;49.350;8.152;2022-09-16T00:18:00;996.4;;;22.04;48.26
54459;BME280;40368;49.350;8.152;2022-09-16T00:19:00;996.4;;;22.04;48.33
54459;BME280;40368;49.350;8.152;2022-09-16T00:20:00;996.4;;;22.05;48.63
54459;BME280;40368;49.350;8.152;2022-09-16T00:21:00;996.4;;;22.05;48.32
54459;BME280;40368;49.350;8.152;2022-09-16T00:22:00;996.4;;;22.05;48.24
54459;BME280;40368;49.350;8.152;2022-09-16T00:23:00;996.4;;;22.03;48.32
54459;BME280;40368;49.350;8.152;2022-09-16T00:24:00;996.5;;;22.04;48.5
54459;BME280;40368;49.350;8.152;2022-09-16T00:25:00;996.5;;;22.03;48.56
54459;BME280;40368;49.350;8.152;2022-09-16T00:26:00;996.4;;;22.03;48.35
54459;BME280;40368;49.350;8.152;2022-09-16T00:27:00;996.4;;;22.01;48.35
54459;BME280;40368;49.350;8.152;2022-09-16T00:28:00;996.4;;;21.99;48.45
54459;BME280;40368;49.350;8.152;2022-09-16T00:29:01;996.5;;;21.98;48.56
54459;BME280;40368;49.350;8.152;2022-09-16T00:30:00;996.4;;;21.99;48.48
54459;BME280;40368;49.350;8.152;2022-09-16T00:31:00;996.4;;;22;48.56
54459;BME280;40368;49.350;8.152;2022-09-16T00:32:01;996.4;;;22;48.46
54459;BME280;40368;49.350;8.152;2022-09-16T00:33:00;996.4;;;21.98;48.46
54459;BME280;40368;49.350;8.152;2022-09-16T00:34:00;996.4;;;21.96;48.55
54459;BME280;40368;49.350;8.152;2022-09-16T00:35:00;996.5;;;21.96;48.51
54459;BME280;40368;49.350;8.152;2022-09-16T00:36:04;996.4;;;21.96;48.5
54459;BME280;40368;49.350;8.152;2022-09-16T00:37:00;996.4;;;21.94;48.65
54459;BME280;40368;49.350;8.152;2022-09-16T00:38:00;996.4;;;21.94;48.65
54459;BME280;40368;49.350;8.152;2022-09-16T00:39:00;996.4;;;21.94;48.78
54459;BME280;40368;49.350;8.152;2022-09-16T00:40:00;996.4;;;21.93;48.47
54459;BME280;40368;49.350;8.152;2022-09-16T00:41:00;996.4;;;21.92;48.65
54459;BME280;40368;49.350;8.152;2022-09-16T00:42:00;996.4;;;21.9;48.76
54459;BME280;40368;49.350;8.152;2022-09-16T00:43:00;996.4;;;21.9;48.82
54459;BME280;40368;49.350;8.152;2022-09-16T00:44:01;996.4;;;21.9;48.83
54459;BME280;40368;49.350;8.152;2022-09-16T00:45:01;996.4;;;21.91;48.79
54459;BME280;40368;49.350;8.152;2022-09-16T00:46:01;996.4;;;21.9;48.73
54459;BME280;40368;49.350;8.152;2022-09-16T00:47:00;996.4;;;21.89;48.83
54459;BME280;40368;49.350;8.152;2022-09-16T00:48:01;996.5;;;21.87;48.93
54459;BME280;40368;49.350;8.152;2022-09-16T00:49:02;996.5;;;21.85;48.79
54459;BME280;40368;49.350;8.152;2022-09-16T00:50:02;996.4;;;21.82;48.63
54459;BME280;40368;49.350;8.152;2022-09-16T00:51:00;996.5;;;21.81;48.96
54459;BME280;40368;49.350;8.152;2022-09-16T00:52:01;996.4;;;21.78;48.9
54459;BME280;40368;49.350;8.152;2022-09-16T00:53:00;996.4;;;21.78;48.81
54459;BME280;40368;49.350;8.152;2022-09-16T00:54:01;996.4;;;21.79;48.98
54459;BME280;40368;49.350;8.152;2022-09-16T00:55:00;996.4;;;21.79;48.82
54459;BME280;40368;49.350;8.152;2022-09-16T00:56:01;996.4;;;21.79;48.86
54459;BME280;40368;49.350;8.152;2022-09-16T00:57:00;996.4;;;21.78;48.74
54459;BME280;40368;49.350;8.152;2022-09-16T00:58:01;996.4;;;21.79;48.47
54459;BME280;40368;49.350;8.152;2022-09-16T00:59:01;996.4;;;21.77;47.72
54459;BME280;40368;49.350;8.152;2022-09-16T01:00:00;996.4;;;21.73;48.36
54459;BME280;40368;49.350;8.152;2022-09-16T01:01:00;996.4;;;21.74;47.99
54459;BME280;40368;49.350;8.152;2022-09-16T01:02:02;996.5;;;21.73;48.25
54459;BME280;40368;49.350;8.152;2022-09-16T01:03:00;996.4;;;21.73;48.34
54459;BME280;40368;49.350;8.152;2022-09-16T01:04:01;996.4;;;21.73;48.47
54459;BME280;40368;49.350;8.152;2022-09-16T01:05:02;996.4;;;21.74;48.54
54459;BME280;40368;49.350;8.152;2022-09-16T01:07:00;996.4;;;21.72;48.56
54459;BME280;40368;49.350;8.152;2022-09-16T01:08:00;996.4;;;21.73;48.49
54459;BME280;40368;49.350;8.152;2022-09-16T01:09:00;996.4;;;21.73;48.23
54459;BME280;40368;49.350;8.152;2022-09-16T01:10:00;996.4;;;21.72;48.42
54459;BME280;40368;49.350;8.152;2022-09-16T01:11:00;996.4;;;21.69;48.52
54459;BME280;40368;49.350;8.152;2022-09-16T01:12:00;996.4;;;21.67;48.7
54459;BME280;40368;49.350;8.152;2022-09-16T01:13:01;996.4;;;21.68;48.59
54459;BME280;40368;49.350;8.152;2022-09-16T01:14:00;996.4;;;21.68;48.9
54459;BME280;40368;49.350;8.152;2022-09-16T01:15:00;996.3;;;21.69;48.83
54459;BME280;40368;49.350;8.152;2022-09-16T01:16:01;996.4;;;21.68;48.65
54459;BME280;40368;49.350;8.152;2022-09-16T01:17:02;996.3;;;21.68;48.9
54459;BME280;40368;49.350;8.152;2022-09-16T01:18:04;996.4;;;21.67;48.84
54459;BME280;40368;49.350;8.152;2022-09-16T01:19:01;996.3;;;21.67;48.99
54459;BME280;40368;49.350;8.152;2022-09-16T01:20:04;996.4;;;21.68;48.77
54459;BME280;40368;49.350;8.152;2022-09-16T01:21:03;996.3;;;21.67;49.06
54459;BME280;40368;49.350;8.152;2022-09-16T01:22:02;996.3;;;21.68;48.99
54459;BME280;40368;49.350;8.152;2022-09-16T01:23:06;996.3;;;21.67;48.75
54459;BME280;40368;49.350;8.152;2022-09-16T01:24:33;996.3;;;21.66;48.66
54459;BME280;40368;49.350;8.152;2022-09-16T01:25:03;996.3;;;21.64;48.46
54459;BME280;40368;49.350;8.152;2022-09-16T01:26:05;996.2;;;21.64;48.8
54459;BME280;40368;49.350;8.152;2022-09-16T01:28:06;996.1;;;21.64;48.71
54459;BME280;40368;49.350;8.152;2022-09-16T01:28:10;996.2;;;21.65;48.79
54459;BME280;40368;49.350;8.152;2022-09-16T01:29:14;996.1;;;21.65;48.61
54459;BME280;40368;49.350;8.152;2022-09-16T01:30:17;996.1;;;21.67;48.68
54459;BME280;40368;49.350;8.152;2022-09-16T01:31:02;996;;;21.69;48.67
54459;BME280;40368;49.350;8.152;2022-09-16T01:32:01;995.9;;;21.72;48.53
54459;BME280;40368;49.350;8.152;2022-09-16T01:33:01;995.9;;;21.73;48.26
54459;BME280;40368;49.350;8.152;2022-09-16T01:34:02;995.9;;;21.72;47.86
54459;BME280;40368;49.350;8.152;2022-09-16T01:35:01;995.9;;;21.69;48.19
54459;BME280;40368;49.350;8.152;2022-09-16T01:36:04;995.8;;;21.66;48.19
54459;BME280;40368;49.350;8.152;2022-09-16T01:37:02;995.8;;;21.64;48.44
54459;BME280;40368;49.350;8.152;2022-09-16T01:38:02;995.8;;;21.65;48.28
54459;BME280;40368;49.350;8.152;2022-09-16T01:39:04;995.8;;;21.65;47.96
54459;BME280;40368;49.350;8.152;2022-09-16T01:40:02;995.7;;;21.64;47.93
54459;BME280;40368;49.350;8.152;2022-09-16T01:41:03;995.8;;;21.64;48.33
54459;BME280;40368;49.350;8.152;2022-09-16T01:42:03;995.7;;;21.63;48.31
54459;BME280;40368;49.350;8.152;2022-09-16T01:43:02;995.6;;;21.64;48.14
54459;BME280;40368;49.350;8.152;2022-09-16T01:44:01;995.7;;;21.64;48.15
54459;BME280;40368;49.350;8.152;2022-09-16T01:45:03;995.7;;;21.62;47.82
54459;BME280;40368;49.350;8.152;2022-09-16T01:46:01;995.7;;;21.59;47.86
54459;BME280;40368;49.350;8.152;2022-09-16T01:47:01;995.9;;;21.55;48.03
54459;BME280;40368;49.350;8.152;2022-09-16T01:48:02;996;;;21.49;48.55
54459;BME280;40368;49.350;8.152;2022-09-16T01:49:01;996.1;;;21.43;48.31
54459;BME280;40368;49.350;8.152;2022-09-16T01:50:01;996.2;;;21.37;48.72
54459;BME280;40368;49.350;8.152;2022-09-16T01:51:01;996.3;;;21.32;48.36
54459;BME280;40368;49.350;8.152;2022-09-16T01:52:01;996.3;;;21.26;49.08
54459;BME280;40368;49.350;8.152;2022-09-16T01:53:02;996.4;;;21.24;48.78
54459;BME280;40368;49.350;8.152;2022-09-16T01:54:02;996.4;;;21.2;48.73
54459;BME280;40368;49.350;8.152;2022-09-16T01:55:01;996.5;;;21.15;48.99
54459;BME280;40368;49.350;8.152;2022-09-16T01:56:02;996.5;;;21.13;49.3
54459;BME280;40368;49.350;8.152;2022-09-16T01:57:01;996.5;;;21.18;49.43
54459;BME280;40368;49.350;8.152;2022-09-16T01:58:02;996.4;;;21.21;48.8
54459;BME280;40368;49.350;8.152;2022-09-16T01:59:01;996.4;;;21.24;48.93
54459;BME280;40368;49.350;8.152;2022-09-16T02:00:02;996.4;;;21.28;49.21
54459;BME280;40368;49.350;8.152;2022-09-16T02:01:02;996.4;;;21.33;48.88
54459;BME280;40368;49.350;8.152;2022-09-16T02:02:02;996.4;;;21.39;48.47
54459;BME280;40368;49.350;8.152;2022-09-16T02:03:01;996.4;;;21.41;48.57
54459;BME280;40368;49.350;8.152;2022-09-16T02:04:01;996.4;;;21.45;48.49
54459;BME280;40368;49.350;8.152;2022-09-16T02:05:02;996.3;;;21.47;48.27
54459;BME280;40368;49.350;8.152;2022-09-16T02:06:00;996.3;;;21.49;48.37
54459;BME280;40368;49.350;8.152;2022-09-16T02:07:01;996.4;;;21.49;48.37
54459;BME280;40368;49.350;8.152;2022-09-16T02:08:01;996.4;;;21.48;48.28
54459;BME280;40368;49.350;8.152;2022-09-16T02:09:01;996.4;;;21.48;48.24
54459;BME280;40368;49.350;8.152;2022-09-16T02:10:02;996.4;;;21.48;48.09
54459;BME280;40368;49.350;8.152;2022-09-16T02:11:01;996.4;;;21.47;48.13
54459;BME280;40368;49.350;8.152;2022-09-16T02:12:01;996.3;;;21.48;48.4
54459;BME280;40368;49.350;8.152;2022-09-16T02:13:01;996.3;;;21.5;47.92
54459;BME280;40368;49.350;8.152;2022-09-16T02:14:02;996.3;;;21.5;48.25
54459;BME280;40368;49.350;8.152;2022-09-16T02:15:01;996.3;;;21.51;48.34
54459;BME280;40368;49.350;8.152;2022-09-16T02:16:06;996.3;;;21.52;48.33
54459;BME280;40368;49.350;8.152;2022-09-16T02:17:01;996.3;;;21.54;47.78
54459;BME280;40368;49.350;8.152;2022-09-16T02:18:01;996.4;;;21.54;48.14
54459;BME280;40368;49.350;8.152;2022-09-16T02:19:01;996.3;;;21.56;47.42
54459;BME280;40368;49.350;8.152;2022-09-16T02:20:02;996.3;;;21.57;47.64
54459;BME280;40368;49.350;8.152;2022-09-16T02:21:01;996.3;;;21.57;47.48
54459;BME280;40368;49.350;8.152;2022-09-16T02:22:00;996.3;;;21.5;46.83
54459;BME280;40368;49.350;8.152;2022-09-16T02:23:02;996.3;;;21.47;47.56
54459;BME280;40368;49.350;8.152;2022-09-16T02:24:02;996.3;;;21.46;47.94
54459;BME280;40368;49.350;8.152;2022-09-16T02:25:00;996.3;;;21.48;47.92
54459;BME280;40368;49.350;8.152;2022-09-16T02:26:00;996.3;;;21.48;47.55
54459;BME280;40368;49.350;8.152;2022-09-16T02:27:01;996.3;;;21.47;47.75
54459;BME280;40368;49.350;8.152;2022-09-16T02:28:01;996.3;;;21.5;47.61
54459;BME280;40368;49.350;8.152;2022-09-16T02:29:00;996.3;;;21.52;47.7
54459;BME280;40368;49.350;8.152;2022-09-16T02:30:01;996.3;;;21.53;47.66
54459;BME280;40368;49.350;8.152;2022-09-16T02:31:00;996.3;;;21.55;47.29
54459;BME280;40368;49.350;8.152;2022-09-16T02:32:00;996.4;;;21.52;47.86
54459;BME280;40368;49.350;8.152;2022-09-16T02:33:01;996.4;;;21.52;47.49
54459;BME280;40368;49.350;8.152;2022-09-16T02:34:01;996.4;;;21.5;47.65
54459;BME280;40368;49.350;8.152;2022-09-16T02:35:00;996.4;;;21.49;47.78
54459;BME280;40368;49.350;8.152;2022-09-16T02:36:00;996.4;;;21.48;48.08
54459;BME280;40368;49.350;8.152;2022-09-16T02:37:02;996.3;;;21.47;48.19
54459;BME280;40368;49.350;8.152;2022-09-16T02:38:01;996.3;;;21.48;48.07
54459;BME280;40368;49.350;8.152;2022-09-16T02:39:02;996.3;;;21.5;48.18
54459;BME280;40368;49.350;8.152;2022-09-16T02:40:03;996.3;;;21.48;47.5
54459;BME280;40368;49.350;8.152;2022-09-16T02:41:00;996.4;;;21.46;48.17
54459;BME280;40368;49.350;8.152;2022-09-16T02:42:00;996.4;;;21.45;48.16
54459;BME280;40368;49.350;8.152;2022-09-16T02:43:00;996.4;;;21.45;47.9
54459;BME280;40368;49.350;8.152;2022-09-16T02:44:00;996.4;;;21.45;48.22
54459;BME280;40368;49.350;8.152;2022-09-16T02:45:00;996.4;;;21.45;48.31
54459;BME280;40368;49.350;8.152;2022-09-16T02:46:03;996.4;;;21.45;47.82
54459;BME280;40368;49.350;8.152;2022-09-16T02:47:02;996.4;;;21.44;47.78
54459;BME280;40368;49.350;8.152;2022-09-16T02:48:00;996.4;;;21.45;48.2
54459;BME280;40368;49.350;8.152;2022-09-16T02:49:02;996.4;;;21.46;48.13
54459;BME280;40368;49.350;8.152;2022-09-16T02:50:00;996.4;;;21.48;47.63
54459;BME280;40368;49.350;8.152;2022-09-16T02:51:02;996.4;;;21.47;47.89
54459;BME280;40368;49.350;8.152;2022-09-16T02:52:03;996.4;;;21.46;48.05
54459;BME280;40368;49.350;8.152;2022-09-16T02:53:01;996.3;;;21.46;47.83
54459;BME280;40368;49.350;8.152;2022-09-16T02:54:01;996.3;;;21.45;47.78
54459;BME280;40368;49.350;8.152;2022-09-16T02:55:02;996.3;;;21.42;48.12
54459;BME280;40368;49.350;8.152;2022-09-16T02:56:01;996.3;;;21.44;47.67
54459;BME280;40368;49.350;8.152;2022-09-16T02:57:00;996.3;;;21.46;47.94
54459;BME280;40368;49.350;8.152;2022-09-16T02:58:00;996.3;;;21.48;47.82
54459;BME280;40368;49.350;8.152;2022-09-16T02:59:00;996.3;;;21.47;47.59
54459;BME280;40368;49.350;8.152;2022-09-16T03:00:00;996.3;;;21.46;47.62
54459;BME280;40368;49.350;8.152;2022-09-16T03:01:00;996.3;;;21.44;47.39
54459;BME280;40368;49.350;8.152;2022-09-16T03:02:00;996.3;;;21.41;47.51
54459;BME280;40368;49.350;8.152;2022-09-16T03:03:00;996.3;;;21.41;47.45
54459;BME280;40368;49.350;8.152;2022-09-16T03:04:00;996.3;;;21.39;47.29
54459;BME280;40368;49.350;8.152;2022-09-16T03:05:00;996.3;;;21.37;47.66
54459;BME280;40368;49.350;8.152;2022-09-16T03:06:09;996.2;;;21.38;47.45
54459;BME280;40368;49.350;8.152;2022-09-16T03:07:01;996.2;;;21.4;47.53
54459;BME280;40368;49.350;8.152;2022-09-16T03:08:00;996.2;;;21.41;47.82
54459;BME280;40368;49.350;8.152;2022-09-16T03:09:01;996.2;;;21.41;46.6
54459;BME280;40368;49.350;8.152;2022-09-16T03:10:00;996.2;;;21.35;46.77
54459;BME280;40368;49.350;8.152;2022-09-16T03:11:02;996.2;;;21.31;47.01
54459;BME280;40368;49.350;8.152;2022-09-16T03:12:04;996.2;;;21.28;47.39
54459;BME280;40368;49.350;8.152;2022-09-16T03:13:01;996.2;;;21.28;46.22
54459;BME280;40368;49.350;8.152;2022-09-16T03:14:03;996.1;;;21.29;47.28
54459;BME280;40368;49.350;8.152;2022-09-16T03:15:06;996.2;;;21.32;47.21
54459;BME280;40368;49.350;8.152;2022-09-16T03:16:01;996.2;;;21.34;47.33
54459;BME280;40368;49.350;8.152;2022-09-16T03:17:02;996.2;;;21.36;46.99
54459;BME280;40368;49.350;8.152;2022-09-16T03:18:05;996.2;;;21.36;46.92
54459;BME280;40368;49.350;8.152;2022-09-16T03:19:02;996.2;;;21.37;47.34
54459;BME280;40368;49.350;8.152;2022-09-16T03:20:02;996.2;;;21.39;47.16
54459;BME280;40368;49.350;8.152;2022-09-16T03:21:01;996.2;;;21.39;46.87
54459;BME280;40368;49.350;8.152;2022-09-16T03:22:01;996.2;;;21.39;47.28
54459;BME280;40368;49.350;8.152;2022-09-16T03:23:03;996.2;;;21.41;47.53
54459;BME280;40368;49.350;8.152;2022-09-16T03:24:02;996.1;;;21.43;47.55
54459;BME280;40368;49.350;8.152;2022-09-16T03:25:02;996.1;;;21.43;47.46
54459;BME280;40368;49.350;8.152;2022-09-16T03:26:02;996.1;;;21.42;47.29
54459;BME280;40368;49.350;8.152;2022-09-16T03:27:02;996.1;;;21.41;47.57
54459;BME280;40368;49.350;8.152;2022-09-16T03:28:01;996.1;;;21.41;46.89
54459;BME280;40368;49.350;8.152;2022-09-16T03:29:02;996.1;;;21.39;47.27
54459;BME280;40368;49.350;8.152;2022-09-16T03:30:01;996.1;;;21.4;47.18
54459;BME280;40368;49.350;8.152;2022-09-16T03:31:02;996;;;21.4;46.99
54459;BME280;40368;49.350;8.152;2022-09-16T03:32:01;996.1;;;21.42;47.12
54459;BME280;40368;49.350;8.152;2022-09-16T03:33:01;996;;;21.43;47.42
54459;BME280;40368;49.350;8.152;2022-09-16T03:34:03;996.1;;;21.39;45.98
54459;BME280;40368;49.350;8.152;2022-09-16T03:35:01;996;;;21.31;47.46
54459;BME280;40368;49.350;8.152;2022-09-16T03:36:01;996.1;;;21.28;47.36
54459;BME280;40368;49.350;8.152;2022-09-16T03:37:01;996.1;;;21.28;47.68
54459;BME280;40368;49.350;8.152;2022-09-16T03:38:00;996.1;;;21.32;47.26
54459;BME280;40368;49.350;8.152;2022-09-16T03:39:00;996.1;;;21.34;47.26
54459;BME280;40368;49.350;8.152;2022-09-16T03:40:02;996.1;;;21.36;47.1
54459;BME280;40368;49.350;8.152;2022-09-16T03:41:00;996.1;;;21.36;47.45
54459;BME280;40368;49.350;8.152;2022-09-16T03:42:00;996.1;;;21.37;47.15
54459;BME280;40368;49.350;8.152;2022-09-16T03:43:08;996.1;;;21.38;47.28
54459;BME280;40368;49.350;8.152;2022-09-16T03:44:00;996.1;;;21.38;47.32
54459;BME280;40368;49.350;8.152;2022-09-16T03:45:00;996.1;;;21.38;47.21
54459;BME280;40368;49.350;8.152;2022-09-16T03:46:00;996.1;;;21.38;47.65
54459;BME280;40368;49.350;8.152;2022-09-16T03:47:01;996.1;;;21.4;47.4
54459;BME280;40368;49.350;8.152;2022-09-16T03:48:00;996.1;;;21.4;47.37
54459;BME280;40368;49.350;8.152;2022-09-16T03:49:01;996.1;;;21.4;46.97
54459;BME280;40368;49.350;8.152;2022-09-16T03:50:00;996.1;;;21.41;47.69
54459;BME280;40368;49.350;8.152;2022-09-16T03:51:00;996.1;;;21.41;47.15
54459;BME280;40368;49.350;8.152;2022-09-16T03:52:00;996.1;;;21.35;47.01
54459;BME280;40368;49.350;8.152;2022-09-16T03:53:00;996.1;;;21.32;47.42
54459;BME280;40368;49.350;8.152;2022-09-16T03:54:00;996.2;;;21.33;47.65
54459;BME280;40368;49.350;8.152;2022-09-16T03:55:00;996.2;;;21.36;47.64
54459;BME280;40368;49.350;8.152;2022-09-16T03:56:00;996.1;;;21.37;48.01
54459;BME280;40368;49.350;8.152;2022-09-16T03:57:00;996.1;;;21.36;47.88
54459;BME280;40368;49.350;8.152;2022-09-16T03:58:00;996.1;;;21.37;47.87
54459;BME280;40368;49.350;8.152;2022-09-16T03:59:00;996.1;;;21.36;48.36
54459;BME280;40368;49.350;8.152;2022-09-16T04:00:00;996.1;;;21.32;48.52
54459;BME280;40368;49.350;8.152;2022-09-16T04:01:00;996;;;21.3;48.42
54459;BME280;40368;49.350;8.152;2022-09-16T04:02:00;996.1;;;21.31;48.5
54459;BME280;40368;49.350;8.152;2022-09-16T04:03:00;996;;;21.31;48.8
54459;BME280;40368;49.350;8.152;2022-09-16T04:04:00;996;;;21.32;48.51
54459;BME280;40368;49.350;8.152;2022-09-16T04:05:00;996;;;21.34;48.62
54459;BME280;40368;49.350;8.152;2022-09-16T04:06:00;996;;;21.36;48.69
54459;BME280;40368;49.350;8.152;2022-09-16T04:07:00;996.1;;;21.35;48.5
54459;BME280;40368;49.350;8.152;2022-09-16T04:08:00;996.1;;;21.34;48.5
54459;BME280;40368;49.350;8.152;2022-09-16T04:09:00;996.1;;;21.33;48.47
54459;BME280;40368;49.350;8.152;2022-09-16T04:10:00;996.1;;;21.33;48.39
54459;BME280;40368;49.350;8.152;2022-09-16T04:11:01;996.1;;;21.35;48.55
54459;BME280;40368;49.350;8.152;2022-09-16T04:12:00;996.1;;;21.35;48.44
54459;BME280;40368;49.350;8.152;2022-09-16T04:13:00;996.1;;;21.36;48.59
54459;BME280;40368;49.350;8.152;2022-09-16T04:14:00;996.1;;;21.36;48.65
54459;BME280;40368;49.350;8.152;2022-09-16T04:15:00;996.1;;;21.33;48.42
54459;BME280;40368;49.350;8.152;2022-09-16T04:16:01;996.1;;;21.31;48.83
54459;BME280;40368;49.350;8.152;2022-09-16T04:17:00;996.1;;;21.3;48.94
54459;BME280;40368;49.350;8.152;2022-09-16T04:18:00;996;;;21.28;48.84
54459;BME280;40368;49.350;8.152;2022-09-16T04:19:00;996;;;21.28;48.56
54459;BME280;40368;49.350;8.152;2022-09-16T04:20:00;996;;;21.3;48.79
54459;BME280;40368;49.350;8.152;2022-09-16T04:21:01;996;;;21.3;48.96
54459;BME280;40368;49.350;8.152;2022-09-16T04:22:00;996;;;21.29;48.89
54459;BME280;40368;49.350;8.152;2022-09-16T04:23:00;996;;;21.26;48.99
54459;BME280;40368;49.350;8.152;2022-09-16T04:24:00;996;;;21.25;49.17
54459;BME280;40368;49.350;8.152;2022-09-16T04:25:00;996.1;;;21.26;49.25
54459;BME280;40368;49.350;8.152;2022-09-16T04:26:01;996;;;21.25;49.1
54459;BME280;40368;49.350;8.152;2022-09-16T04:27:00;996;;;21.22;49.06
54459;BME280;40368;49.350;8.152;2022-09-16T04:28:00;996;;;21.19;49.04
54459;BME280;40368;49.350;8.152;2022-09-16T04:29:00;996;;;21.21;49.01
54459;BME280;40368;49.350;8.152;2022-09-16T04:30:00;996;;;21.22;49.45
54459;BME280;40368;49.350;8.152;2022-09-16T04:31:00;996;;;21.21;49.09
54459;BME280;40368;49.350;8.152;2022-09-16T04:32:00;996;;;21.23;49
54459;BME280;40368;49.350;8.152;2022-09-16T04:33:00;996;;;21.21;49.26
54459;BME280;40368;49.350;8.152;2022-09-16T04:34:00;996;;;21.19;49.03
54459;BME280;40368;49.350;8.152;2022-09-16T04:35:00;996;;;21.2;48.99
54459;BME280;40368;49.350;8.152;2022-09-16T04:36:01;996;;;21.21;49.1
54459;BME280;40368;49.350;8.152;2022-09-16T04:37:00;996;;;21.21;49.05
54459;BME280;40368;49.350;8.152;2022-09-16T04:38:00;996;;;21.21;49.1
54459;BME280;40368;49.350;8.152;2022-09-16T04:39:00;996;;;21.22;49
54459;BME280;40368;49.350;8.152;2022-09-16T04:40:00;996;;;21.23;49.17
54459;BME280;40368;49.350;8.152;2022-09-16T04:41:01;996;;;21.22;48.79
54459;BME280;40368;49.350;8.152;2022-09-16T04:42:00;996;;;21.21;48.81
54459;BME280;40368;49.350;8.152;2022-09-16T04:43:00;996;;;21.22;48.82
54459;BME280;40368;49.350;8.152;2022-09-16T04:44:00;995.9;;;21.22;49.22
54459;BME280;40368;49.350;8.152;2022-09-16T04:45:00;996;;;21.22;49
54459;BME280;40368;49.350;8.152;2022-09-16T04:46:00;996;;;21.22;48.93
54459;BME280;40368;49.350;8.152;2022-09-16T04:47:00;996.1;;;21.22;48.86
54459;BME280;40368;49.350;8.152;2022-09-16T04:48:00;996.1;;;21.24;48.91
54459;BME280;40368;49.350;8.152;2022-09-16T04:49:00;996.1;;;21.23;48.92
54459;BME280;40368;49.350;8.152;2022-09-16T04:50:00;996.1;;;21.22;49.04
54459;BME280;40368;49.350;8.152;2022-09-16T04:51:01;996.1;;;21.2;49.19
54459;BME280;40368;49.350;8.152;2022-09-16T04:52:00;996;;;21.16;49.28
54459;BME280;40368;49.350;8.152;2022-09-16T04:53:00;996;;;21.17;49.07
54459;BME280;40368;49.350;8.152;2022-09-16T04:54:00;996;;;21.16;48.99
54459;BME280;40368;49.350;8.152;2022-09-16T04:55:00;996;;;21.16;48.66
54459;BME280;40368;49.350;8.152;2022-09-16T04:56:02;996.1;;;21.14;49.16
54459;BME280;40368;49.350;8.152;2022-09-16T04:57:00;996;;;21.13;48.95
54459;BME280;40368;49.350;8.152;2022-09-16T04:58:00;996;;;21.15;48.88
54459;BME280;40368;49.350;8.152;2022-09-16T04:59:01;996;;;21.15;48.79
54459;BME280;40368;49.350;8.152;2022-09-16T05:00:00;996;;;21.17;48.97
54459;BME280;40368;49.350;8.152;2022-09-16T05:01:04;996.1;;;21.15;48.97
54459;BME280;40368;49.350;8.152;2022-09-16T05:02:00;996.1;;;21.14;49
54459;BME280;40368;49.350;8.152;2022-09-16T05:03:00;996.1;;;21.13;48.98
54459;BME280;40368;49.350;8.152;2022-09-16T05:04:02;996.1;;;21.09;49.41
54459;BME280;40368;49.350;8.152;2022-09-16T05:05:00;996.1;;;21.04;49.21
54459;BME280;40368;49.350;8.152;2022-09-16T05:06:04;996.1;;;21.04;49.33
54459;BME280;40368;49.350;8.152;2022-09-16T05:07:00;996.1;;;21.03;49.26
54459;BME280;40368;49.350;8.152;2022-09-16T05:08:00;996.1;;;21.02;49.25
54459;BME280;40368;49.350;8.152;2022-09-16T05:09:00;996.1;;;21;49.28
54459;BME280;40368;49.350;8.152;2022-09-16T05:10:00;996.1;;;21;49.37
54459;BME280;40368;49.350;8.152;2022-09-16T05:11:02;996.1;;;21;49.43
54459;BME280;40368;49.350;8.152;2022-09-16T05:12:00;996.1;;;21.01;49.41
54459;BME280;40368;49.350;8.152;2022-09-16T05:13:00;996.1;;;21.01;49.38
54459;BME280;40368;49.350;8.152;2022-09-16T05:14:00;996;;;21.01;49.4
54459;BME280;40368;49.350;8.152;2022-09-16T05:15:00;996.1;;;20.99;49.56
54459;BME280;40368;49.350;8.152;2022-09-16T05:16:02;996.1;;;20.96;49.55
54459;BME280;40368;49.350;8.152;2022-09-16T05:17:00;996.1;;;20.93;49.38
54459;BME280;40368;49.350;8.152;2022-09-16T05:18:00;996;;;20.91;49.64
54459;BME280;40368;49.350;8.152;2022-09-16T05:19:00;996.1;;;20.93;49.64
54459;BME280;40368;49.350;8.152;2022-09-16T05:20:00;996.1;;;20.95;49.55
54459;BME280;40368;49.350;8.152;2022-09-16T05:21:01;996.1;;;20.97;49.55
54459;BME280;40368;49.350;8.152;2022-09-16T05:22:00;996.1;;;20.98;49.59
54459;BME280;40368;49.350;8.152;2022-09-16T05:23:00;996.1;;;20.98;49.54
54459;BME280;40368;49.350;8.152;2022-09-16T05:24:00;996.1;;;20.97;49.28
54459;BME280;40368;49.350;8.152;2022-09-16T05:25:00;996.1;;;20.99;49.08
54459;BME280;40368;49.350;8.152;2022-09-16T05:26:01;996.1;;;21;49.05
54459;BME280;40368;49.350;8.152;2022-09-16T05:27:00;996.1;;;21;49.17
54459;BME280;40368;49.350;8.152;2022-09-16T05:28:00;996.1;;;21.01;49.02
54459;BME280;40368;49.350;8.152;2022-09-16T05:29:00;996;;;21.03;48.67
54459;BME280;40368;49.350;8.152;2022-09-16T05:30:00;996;;;21.04;48.87
54459;BME280;40368;49.350;8.152;2022-09-16T05:31:08;996.1;;;21.04;48.99
54459;BME280;40368;49.350;8.152;2022-09-16T05:32:00;996.1;;;21.04;49.37
54459;BME280;40368;49.350;8.152;2022-09-16T05:33:00;996.1;;;21;49.29
54459;BME280;40368;49.350;8.152;2022-09-16T05:34:01;996.2;;;20.97;49.34